Capitol Logistics 3253




KMIA
Miami International Airport
Miami, Florida
KMTH
The Florida Keys Marathon International Airport
Marathon, Florida

Activity Log

Date Flight Route Aircraft Duration
03/08/2021 CPX3253 SOUBY5 MNATE MTH SF34 0h 48m
07/04/2020 CPX3253 SOUBY5 MNATE MTH SF34 0h 50m
10/23/2019 CPX653 SOUBY5 MNATE MTH SF34 0h 57m
06/16/2019 CPX653 SOUBY5 MNATE MTH SF34 0h 38m
06/05/2019 CPX653 MNATE2 MNATE SF34 0h 45m
04/30/2019 CPX653 SOUBY5 MNATE MTH SF34 0h 30m
04/07/2019 CPX653 SOUBY5 MNATE MTH SF34 0h 28m
04/02/2019 CPX653 SOUBY5 MNATE MTH SF34 0h 43m
03/20/2019 CPX653 SOUBY5 MNATE MTH SF34 1h 03m
03/06/2019 CPX653 SOUBY5 MNATE MTH SF34 0h 40m

Route Details

Aircraft Information
Primary: Saab 340AF
Backup: Not Available
Route Data
Distance: 96nm
Duration: 0h 55m
Recm'd Route: SOUBY5 MNATE MTH
Origin Wx: KMIA 141853Z 12015G18KT 10SM FEW035 28/17 A3007 RMK AO2 SLP184 T02780172
Dest. Wx: KMTH 141853Z AUTO 10010G22KT 10SM CLR 29/19 A3004 RMK AO2 SLP173 T02890194
Notes: